sensor_id;sensor_type;location;lat;lon;timestamp;P1;durP1;ratioP1;P2;durP2;ratioP2
79412;SDS011;68863;49.528;11.010;2023-08-01T00:00:02;7.35;;;2.22;;
79412;SDS011;68863;49.528;11.010;2023-08-01T00:01:05;7.38;;;2.50;;
79412;SDS011;68863;49.528;11.010;2023-08-01T00:02:05;6.70;;;2.38;;
79412;SDS011;68863;49.528;11.010;2023-08-01T00:03:06;7.30;;;2.50;;
79412;SDS011;68863;49.528;11.010;2023-08-01T00:04:06;7.90;;;3.58;;
79412;SDS011;68863;49.528;11.010;2023-08-01T00:05:06;6.43;;;2.30;;
79412;SDS011;68863;49.528;11.010;2023-08-01T00:06:07;8.20;;;2.60;;
79412;SDS011;68863;49.528;11.010;2023-08-01T00:07:07;6.47;;;2.58;;
79412;SDS011;68863;49.528;11.010;2023-08-01T00:08:07;6.30;;;2.25;;
79412;SDS011;68863;49.528;11.010;2023-08-01T00:09:08;7.47;;;2.58;;
79412;SDS011;68863;49.528;11.010;2023-08-01T00:10:08;7.00;;;2.10;;
79412;SDS011;68863;49.528;11.010;2023-08-01T00:11:09;7.15;;;2.45;;
79412;SDS011;68863;49.528;11.010;2023-08-01T00:12:10;8.00;;;2.50;;
79412;SDS011;68863;49.528;11.010;2023-08-01T00:13:10;5.75;;;2.70;;
79412;SDS011;68863;49.528;11.010;2023-08-01T00:14:10;5.05;;;2.13;;
79412;SDS011;68863;49.528;11.010;2023-08-01T00:15:11;5.33;;;2.03;;
79412;SDS011;68863;49.528;11.010;2023-08-01T00:16:11;5.80;;;2.30;;
79412;SDS011;68863;49.528;11.010;2023-08-01T00:17:11;8.05;;;2.45;;
79412;SDS011;68863;49.528;11.010;2023-08-01T00:18:12;10.05;;;2.20;;
79412;SDS011;68863;49.528;11.010;2023-08-01T00:19:12;6.05;;;2.13;;
79412;SDS011;68863;49.528;11.010;2023-08-01T00:20:12;9.88;;;2.63;;
79412;SDS011;68863;49.528;11.010;2023-08-01T00:21:12;6.03;;;2.35;;
79412;SDS011;68863;49.528;11.010;2023-08-01T00:22:13;5.32;;;2.05;;
79412;SDS011;68863;49.528;11.010;2023-08-01T00:23:13;7.15;;;2.75;;
79412;SDS011;68863;49.528;11.010;2023-08-01T00:24:13;6.70;;;2.65;;
79412;SDS011;68863;49.528;11.010;2023-08-01T00:25:14;6.90;;;2.33;;
79412;SDS011;68863;49.528;11.010;2023-08-01T00:26:14;5.97;;;2.63;;
79412;SDS011;68863;49.528;11.010;2023-08-01T00:27:14;5.85;;;2.30;;
79412;SDS011;68863;49.528;11.010;2023-08-01T00:28:15;8.38;;;2.40;;
79412;SDS011;68863;49.528;11.010;2023-08-01T00:29:15;7.45;;;2.85;;
79412;SDS011;68863;49.528;11.010;2023-08-01T00:30:15;6.18;;;2.35;;
79412;SDS011;68863;49.528;11.010;2023-08-01T00:31:16;8.00;;;2.80;;
79412;SDS011;68863;49.528;11.010;2023-08-01T00:32:16;6.45;;;2.45;;
79412;SDS011;68863;49.528;11.010;2023-08-01T00:33:16;6.10;;;2.50;;
79412;SDS011;68863;49.528;11.010;2023-08-01T00:34:16;8.40;;;2.85;;
79412;SDS011;68863;49.528;11.010;2023-08-01T00:35:17;7.82;;;2.90;;
79412;SDS011;68863;49.528;11.010;2023-08-01T00:36:17;5.80;;;2.38;;
79412;SDS011;68863;49.528;11.010;2023-08-01T00:37:17;6.90;;;2.63;;
79412;SDS011;68863;49.528;11.010;2023-08-01T00:38:18;6.05;;;2.40;;
79412;SDS011;68863;49.528;11.010;2023-08-01T00:39:18;8.90;;;2.53;;
79412;SDS011;68863;49.528;11.010;2023-08-01T00:40:18;7.13;;;2.72;;
79412;SDS011;68863;49.528;11.010;2023-08-01T00:41:19;7.17;;;2.83;;
79412;SDS011;68863;49.528;11.010;2023-08-01T00:42:19;6.20;;;2.38;;
79412;SDS011;68863;49.528;11.010;2023-08-01T00:43:19;7.80;;;3.38;;
79412;SDS011;68863;49.528;11.010;2023-08-01T00:44:20;6.93;;;2.50;;
79412;SDS011;68863;49.528;11.010;2023-08-01T00:45:20;6.53;;;2.45;;
79412;SDS011;68863;49.528;11.010;2023-08-01T00:46:20;7.20;;;2.72;;
79412;SDS011;68863;49.528;11.010;2023-08-01T00:47:20;5.22;;;2.20;;
79412;SDS011;68863;49.528;11.010;2023-08-01T00:48:21;7.53;;;2.80;;
79412;SDS011;68863;49.528;11.010;2023-08-01T00:49:21;6.63;;;2.78;;
79412;SDS011;68863;49.528;11.010;2023-08-01T00:50:22;9.82;;;2.97;;
79412;SDS011;68863;49.528;11.010;2023-08-01T00:51:23;6.85;;;2.50;;
79412;SDS011;68863;49.528;11.010;2023-08-01T00:52:24;7.18;;;2.85;;
79412;SDS011;68863;49.528;11.010;2023-08-01T00:53:24;7.47;;;2.80;;
79412;SDS011;68863;49.528;11.010;2023-08-01T00:54:25;6.97;;;2.67;;
79412;SDS011;68863;49.528;11.010;2023-08-01T00:55:26;8.68;;;2.83;;
79412;SDS011;68863;49.528;11.010;2023-08-01T00:56:29;8.27;;;2.65;;
79412;SDS011;68863;49.528;11.010;2023-08-01T00:57:29;6.82;;;2.42;;
79412;SDS011;68863;49.528;11.010;2023-08-01T00:58:30;6.85;;;2.55;;
79412;SDS011;68863;49.528;11.010;2023-08-01T00:59:30;7.32;;;2.33;;
79412;SDS011;68863;49.528;11.010;2023-08-01T01:00:30;5.63;;;2.53;;
79412;SDS011;68863;49.528;11.010;2023-08-01T01:01:31;7.90;;;3.20;;
79412;SDS011;68863;49.528;11.010;2023-08-01T01:02:31;5.85;;;2.60;;
79412;SDS011;68863;49.528;11.010;2023-08-01T01:03:31;6.32;;;2.88;;
79412;SDS011;68863;49.528;11.010;2023-08-01T01:04:32;8.55;;;2.53;;
79412;SDS011;68863;49.528;11.010;2023-08-01T01:05:34;6.38;;;2.50;;
79412;SDS011;68863;49.528;11.010;2023-08-01T01:06:51;4.97;;;2.40;;
79412;SDS011;68863;49.528;11.010;2023-08-01T01:07:56;5.25;;;2.30;;
79412;SDS011;68863;49.528;11.010;2023-08-01T01:08:57;9.07;;;2.72;;
79412;SDS011;68863;49.528;11.010;2023-08-01T01:09:57;8.57;;;3.08;;
79412;SDS011;68863;49.528;11.010;2023-08-01T01:10:58;6.65;;;2.42;;
79412;SDS011;68863;49.528;11.010;2023-08-01T01:11:58;6.80;;;2.20;;
79412;SDS011;68863;49.528;11.010;2023-08-01T01:12:59;5.93;;;2.38;;
79412;SDS011;68863;49.528;11.010;2023-08-01T01:13:59;6.70;;;2.60;;
79412;SDS011;68863;49.528;11.010;2023-08-01T01:15:00;7.25;;;2.58;;
79412;SDS011;68863;49.528;11.010;2023-08-01T01:16:01;7.07;;;2.72;;
79412;SDS011;68863;49.528;11.010;2023-08-01T01:17:01;7.60;;;2.63;;
79412;SDS011;68863;49.528;11.010;2023-08-01T01:18:02;6.53;;;2.80;;
79412;SDS011;68863;49.528;11.010;2023-08-01T01:19:05;8.27;;;2.55;;
79412;SDS011;68863;49.528;11.010;2023-08-01T01:20:07;6.45;;;2.53;;
79412;SDS011;68863;49.528;11.010;2023-08-01T01:21:08;7.32;;;2.65;;
79412;SDS011;68863;49.528;11.010;2023-08-01T01:22:08;6.75;;;2.35;;
79412;SDS011;68863;49.528;11.010;2023-08-01T01:23:10;6.10;;;2.50;;
79412;SDS011;68863;49.528;11.010;2023-08-01T01:24:11;5.90;;;2.38;;
79412;SDS011;68863;49.528;11.010;2023-08-01T01:26:14;5.95;;;2.42;;
79412;SDS011;68863;49.528;11.010;2023-08-01T01:27:17;6.18;;;2.53;;
79412;SDS011;68863;49.528;11.010;2023-08-01T01:28:18;6.50;;;2.45;;
79412;SDS011;68863;49.528;11.010;2023-08-01T01:29:20;6.65;;;2.28;;
79412;SDS011;68863;49.528;11.010;2023-08-01T01:30:21;7.72;;;2.63;;
79412;SDS011;68863;49.528;11.010;2023-08-01T01:31:22;6.05;;;2.20;;
79412;SDS011;68863;49.528;11.010;2023-08-01T01:32:23;6.45;;;1.98;;
79412;SDS011;68863;49.528;11.010;2023-08-01T01:33:23;5.68;;;2.15;;
79412;SDS011;68863;49.528;11.010;2023-08-01T01:34:23;5.50;;;2.08;;
79412;SDS011;68863;49.528;11.010;2023-08-01T01:35:24;6.13;;;2.15;;
79412;SDS011;68863;49.528;11.010;2023-08-01T01:36:24;6.28;;;2.42;;
79412;SDS011;68863;49.528;11.010;2023-08-01T01:37:24;6.18;;;2.45;;
79412;SDS011;68863;49.528;11.010;2023-08-01T01:38:25;6.20;;;2.25;;
79412;SDS011;68863;49.528;11.010;2023-08-01T01:39:25;7.88;;;2.70;;
79412;SDS011;68863;49.528;11.010;2023-08-01T01:40:25;7.28;;;2.03;;
79412;SDS011;68863;49.528;11.010;2023-08-01T01:41:25;5.78;;;2.17;;
79412;SDS011;68863;49.528;11.010;2023-08-01T01:42:26;6.63;;;2.22;;
79412;SDS011;68863;49.528;11.010;2023-08-01T01:43:26;6.22;;;2.53;;
79412;SDS011;68863;49.528;11.010;2023-08-01T01:44:26;5.70;;;2.30;;
79412;SDS011;68863;49.528;11.010;2023-08-01T01:45:28;8.63;;;2.20;;
79412;SDS011;68863;49.528;11.010;2023-08-01T01:46:28;5.78;;;2.13;;
79412;SDS011;68863;49.528;11.010;2023-08-01T01:47:28;6.72;;;2.22;;
79412;SDS011;68863;49.528;11.010;2023-08-01T01:48:29;5.43;;;2.10;;
79412;SDS011;68863;49.528;11.010;2023-08-01T01:49:29;6.57;;;2.08;;
79412;SDS011;68863;49.528;11.010;2023-08-01T01:50:29;5.68;;;2.30;;
79412;SDS011;68863;49.528;11.010;2023-08-01T01:51:30;5.57;;;2.13;;
79412;SDS011;68863;49.528;11.010;2023-08-01T01:52:31;5.55;;;1.92;;
79412;SDS011;68863;49.528;11.010;2023-08-01T01:53:31;5.85;;;1.92;;
79412;SDS011;68863;49.528;11.010;2023-08-01T01:54:31;7.00;;;2.08;;
79412;SDS011;68863;49.528;11.010;2023-08-01T01:55:31;7.47;;;2.00;;
79412;SDS011;68863;49.528;11.010;2023-08-01T01:56:32;5.32;;;2.00;;
79412;SDS011;68863;49.528;11.010;2023-08-01T01:57:33;5.80;;;2.10;;
79412;SDS011;68863;49.528;11.010;2023-08-01T01:58:36;6.13;;;1.92;;
79412;SDS011;68863;49.528;11.010;2023-08-01T01:59:36;7.10;;;2.33;;
79412;SDS011;68863;49.528;11.010;2023-08-01T02:00:36;5.97;;;1.88;;
79412;SDS011;68863;49.528;11.010;2023-08-01T02:01:37;6.75;;;1.85;;
79412;SDS011;68863;49.528;11.010;2023-08-01T02:02:37;4.88;;;1.73;;
79412;SDS011;68863;49.528;11.010;2023-08-01T02:03:37;7.68;;;1.65;;
79412;SDS011;68863;49.528;11.010;2023-08-01T02:04:37;6.22;;;1.88;;
79412;SDS011;68863;49.528;11.010;2023-08-01T02:05:39;5.18;;;2.03;;
79412;SDS011;68863;49.528;11.010;2023-08-01T02:06:40;5.65;;;1.60;;
79412;SDS011;68863;49.528;11.010;2023-08-01T02:07:40;5.40;;;1.85;;
79412;SDS011;68863;49.528;11.010;2023-08-01T02:08:41;6.78;;;1.73;;
79412;SDS011;68863;49.528;11.010;2023-08-01T02:09:41;6.93;;;2.28;;
79412;SDS011;68863;49.528;11.010;2023-08-01T02:10:41;5.70;;;1.63;;
79412;SDS011;68863;49.528;11.010;2023-08-01T02:11:41;5.27;;;1.63;;
79412;SDS011;68863;49.528;11.010;2023-08-01T02:12:42;4.60;;;1.43;;
79412;SDS011;68863;49.528;11.010;2023-08-01T02:13:42;5.43;;;1.90;;
79412;SDS011;68863;49.528;11.010;2023-08-01T02:14:42;6.00;;;2.10;;
79412;SDS011;68863;49.528;11.010;2023-08-01T02:15:42;4.47;;;1.52;;
79412;SDS011;68863;49.528;11.010;2023-08-01T02:16:43;6.00;;;1.80;;
79412;SDS011;68863;49.528;11.010;2023-08-01T02:17:43;4.85;;;1.52;;
79412;SDS011;68863;49.528;11.010;2023-08-01T02:18:43;5.63;;;1.75;;
79412;SDS011;68863;49.528;11.010;2023-08-01T02:19:44;4.37;;;1.57;;
79412;SDS011;68863;49.528;11.010;2023-08-01T02:20:44;4.63;;;1.73;;
79412;SDS011;68863;49.528;11.010;2023-08-01T02:21:44;5.95;;;1.90;;
79412;SDS011;68863;49.528;11.010;2023-08-01T02:22:44;6.43;;;1.67;;
79412;SDS011;68863;49.528;11.010;2023-08-01T02:23:45;6.47;;;1.90;;
79412;SDS011;68863;49.528;11.010;2023-08-01T02:24:45;5.82;;;1.65;;
79412;SDS011;68863;49.528;11.010;2023-08-01T02:25:45;7.20;;;1.93;;
79412;SDS011;68863;49.528;11.010;2023-08-01T02:26:46;4.23;;;1.47;;
79412;SDS011;68863;49.528;11.010;2023-08-01T02:27:46;4.33;;;1.53;;
79412;SDS011;68863;49.528;11.010;2023-08-01T02:28:46;6.20;;;1.90;;
79412;SDS011;68863;49.528;11.010;2023-08-01T02:29:46;6.30;;;1.70;;
79412;SDS011;68863;49.528;11.010;2023-08-01T02:30:47;6.07;;;1.98;;
79412;SDS011;68863;49.528;11.010;2023-08-01T02:31:47;5.68;;;1.88;;
79412;SDS011;68863;49.528;11.010;2023-08-01T02:32:47;7.30;;;2.03;;
79412;SDS011;68863;49.528;11.010;2023-08-01T02:33:48;4.85;;;1.83;;
79412;SDS011;68863;49.528;11.010;2023-08-01T02:34:48;7.47;;;2.17;;
79412;SDS011;68863;49.528;11.010;2023-08-01T02:35:48;5.30;;;1.73;;
79412;SDS011;68863;49.528;11.010;2023-08-01T02:36:49;7.75;;;1.95;;
79412;SDS011;68863;49.528;11.010;2023-08-01T02:37:49;7.53;;;1.85;;
79412;SDS011;68863;49.528;11.010;2023-08-01T02:38:49;6.40;;;2.13;;
79412;SDS011;68863;49.528;11.010;2023-08-01T02:39:49;5.97;;;1.70;;
79412;SDS011;68863;49.528;11.010;2023-08-01T02:40:50;5.80;;;2.20;;
79412;SDS011;68863;49.528;11.010;2023-08-01T02:41:50;5.03;;;1.80;;
79412;SDS011;68863;49.528;11.010;2023-08-01T02:42:50;5.18;;;1.80;;
79412;SDS011;68863;49.528;11.010;2023-08-01T02:43:51;4.30;;;1.50;;
79412;SDS011;68863;49.528;11.010;2023-08-01T02:44:51;6.32;;;1.80;;
79412;SDS011;68863;49.528;11.010;2023-08-01T02:45:51;6.70;;;1.70;;
79412;SDS011;68863;49.528;11.010;2023-08-01T02:46:51;6.00;;;1.77;;
79412;SDS011;68863;49.528;11.010;2023-08-01T02:47:52;5.78;;;1.73;;
79412;SDS011;68863;49.528;11.010;2023-08-01T02:48:52;7.40;;;1.90;;
79412;SDS011;68863;49.528;11.010;2023-08-01T02:49:52;4.85;;;1.58;;
79412;SDS011;68863;49.528;11.010;2023-08-01T02:50:53;5.32;;;1.90;;
79412;SDS011;68863;49.528;11.010;2023-08-01T02:51:53;4.43;;;1.57;;
79412;SDS011;68863;49.528;11.010;2023-08-01T02:52:53;7.53;;;2.22;;
79412;SDS011;68863;49.528;11.010;2023-08-01T02:53:53;5.75;;;2.00;;
79412;SDS011;68863;49.528;11.010;2023-08-01T02:54:54;5.57;;;2.30;;
79412;SDS011;68863;49.528;11.010;2023-08-01T02:55:54;5.80;;;1.98;;
79412;SDS011;68863;49.528;11.010;2023-08-01T02:56:54;5.83;;;2.03;;
79412;SDS011;68863;49.528;11.010;2023-08-01T02:57:55;6.28;;;2.03;;
79412;SDS011;68863;49.528;11.010;2023-08-01T02:58:55;5.17;;;1.87;;
79412;SDS011;68863;49.528;11.010;2023-08-01T02:59:55;6.78;;;1.92;;
79412;SDS011;68863;49.528;11.010;2023-08-01T03:00:56;5.50;;;1.83;;
79412;SDS011;68863;49.528;11.010;2023-08-01T03:01:56;7.47;;;2.47;;
79412;SDS011;68863;49.528;11.010;2023-08-01T03:02:56;5.37;;;1.53;;
79412;SDS011;68863;49.528;11.010;2023-08-01T03:03:57;5.85;;;1.85;;
79412;SDS011;68863;49.528;11.010;2023-08-01T03:04:57;4.80;;;1.43;;
79412;SDS011;68863;49.528;11.010;2023-08-01T03:05:57;5.07;;;2.00;;
79412;SDS011;68863;49.528;11.010;2023-08-01T03:06:57;5.80;;;1.63;;
79412;SDS011;68863;49.528;11.010;2023-08-01T03:07:58;6.63;;;1.90;;
79412;SDS011;68863;49.528;11.010;2023-08-01T03:08:58;5.68;;;2.40;;
79412;SDS011;68863;49.528;11.010;2023-08-01T03:09:59;6.38;;;1.80;;
79412;SDS011;68863;49.528;11.010;2023-08-01T03:10:59;5.63;;;1.40;;
79412;SDS011;68863;49.528;11.010;2023-08-01T03:12:00;5.70;;;1.87;;
79412;SDS011;68863;49.528;11.010;2023-08-01T03:13:00;5.10;;;1.83;;
79412;SDS011;68863;49.528;11.010;2023-08-01T03:14:00;6.57;;;1.70;;
79412;SDS011;68863;49.528;11.010;2023-08-01T03:15:01;6.75;;;1.65;;
79412;SDS011;68863;49.528;11.010;2023-08-01T03:16:01;5.53;;;2.15;;
79412;SDS011;68863;49.528;11.010;2023-08-01T03:17:01;5.50;;;1.77;;
79412;SDS011;68863;49.528;11.010;2023-08-01T03:18:02;4.70;;;1.63;;
79412;SDS011;68863;49.528;11.010;2023-08-01T03:19:02;5.40;;;1.70;;
79412;SDS011;68863;49.528;11.010;2023-08-01T03:20:04;6.38;;;1.90;;
79412;SDS011;68863;49.528;11.010;2023-08-01T03:21:05;5.97;;;1.70;;
79412;SDS011;68863;49.528;11.010;2023-08-01T03:22:06;5.55;;;1.90;;
79412;SDS011;68863;49.528;11.010;2023-08-01T03:23:07;5.28;;;1.60;;
79412;SDS011;68863;49.528;11.010;2023-08-01T03:24:07;5.73;;;1.90;;
79412;SDS011;68863;49.528;11.010;2023-08-01T03:25:08;5.07;;;2.00;;
79412;SDS011;68863;49.528;11.010;2023-08-01T03:26:09;8.40;;;2.60;;
79412;SDS011;68863;49.528;11.010;2023-08-01T03:27:09;4.90;;;1.60;;
79412;SDS011;68863;49.528;11.010;2023-08-01T03:28:09;6.32;;;2.15;;
79412;SDS011;68863;49.528;11.010;2023-08-01T03:29:10;5.47;;;1.47;;
79412;SDS011;68863;49.528;11.010;2023-08-01T03:30:10;4.70;;;1.60;;
79412;SDS011;68863;49.528;11.010;2023-08-01T03:31:10;6.88;;;1.90;;
79412;SDS011;68863;49.528;11.010;2023-08-01T03:32:11;5.55;;;2.13;;
79412;SDS011;68863;49.528;11.010;2023-08-01T03:33:11;5.63;;;1.83;;
79412;SDS011;68863;49.528;11.010;2023-08-01T03:34:11;6.00;;;1.97;;
79412;SDS011;68863;49.528;11.010;2023-08-01T03:35:12;5.25;;;1.70;;
79412;SDS011;68863;49.528;11.010;2023-08-01T03:36:13;5.07;;;1.92;;
79412;SDS011;68863;49.528;11.010;2023-08-01T03:37:15;6.93;;;1.77;;
79412;SDS011;68863;49.528;11.010;2023-08-01T03:38:16;7.68;;;1.95;;
79412;SDS011;68863;49.528;11.010;2023-08-01T03:39:16;7.47;;;2.10;;
79412;SDS011;68863;49.528;11.010;2023-08-01T03:40:16;6.15;;;1.95;;
79412;SDS011;68863;49.528;11.010;2023-08-01T03:41:16;6.10;;;1.95;;
79412;SDS011;68863;49.528;11.010;2023-08-01T03:42:17;6.20;;;2.22;;
79412;SDS011;68863;49.528;11.010;2023-08-01T03:43:17;6.65;;;1.70;;
79412;SDS011;68863;49.528;11.010;2023-08-01T03:44:23;5.88;;;1.73;;
79412;SDS011;68863;49.528;11.010;2023-08-01T03:45:23;5.53;;;1.52;;
79412;SDS011;68863;49.528;11.010;2023-08-01T03:46:23;6.40;;;1.65;;
79412;SDS011;68863;49.528;11.010;2023-08-01T03:47:24;4.88;;;1.85;;
79412;SDS011;68863;49.528;11.010;2023-08-01T03:48:24;5.63;;;1.50;;
79412;SDS011;68863;49.528;11.010;2023-08-01T03:49:24;5.82;;;1.70;;
79412;SDS011;68863;49.528;11.010;2023-08-01T03:50:25;5.85;;;1.63;;
79412;SDS011;68863;49.528;11.010;2023-08-01T03:51:25;6.03;;;2.05;;
79412;SDS011;68863;49.528;11.010;2023-08-01T03:52:25;5.13;;;1.73;;
79412;SDS011;68863;49.528;11.010;2023-08-01T03:53:26;5.63;;;1.60;;
79412;SDS011;68863;49.528;11.010;2023-08-01T03:54:26;6.43;;;1.63;;
79412;SDS011;68863;49.528;11.010;2023-08-01T03:55:26;6.00;;;1.83;;
79412;SDS011;68863;49.528;11.010;2023-08-01T03:56:27;6.07;;;2.10;;
79412;SDS011;68863;49.528;11.010;2023-08-01T03:57:27;6.28;;;1.80;;
79412;SDS011;68863;49.528;11.010;2023-08-01T03:58:27;6.82;;;2.05;;
79412;SDS011;68863;49.528;11.010;2023-08-01T03:59:28;5.50;;;1.60;;
79412;SDS011;68863;49.528;11.010;2023-08-01T04:00:28;5.00;;;1.58;;
79412;SDS011;68863;49.528;11.010;2023-08-01T04:01:32;6.90;;;2.00;;
79412;SDS011;68863;49.528;11.010;2023-08-01T04:02:32;6.72;;;1.75;;
79412;SDS011;68863;49.528;11.010;2023-08-01T04:03:33;5.20;;;1.80;;
79412;SDS011;68863;49.528;11.010;2023-08-01T04:04:33;5.97;;;1.77;;
79412;SDS011;68863;49.528;11.010;2023-08-01T04:05:33;6.45;;;1.95;;
79412;SDS011;68863;49.528;11.010;2023-08-01T04:06:33;4.45;;;1.52;;
79412;SDS011;68863;49.528;11.010;2023-08-01T04:07:36;5.90;;;1.80;;
79412;SDS011;68863;49.528;11.010;2023-08-01T04:08:37;5.63;;;1.70;;
79412;SDS011;68863;49.528;11.010;2023-08-01T04:09:38;6.25;;;2.15;;
79412;SDS011;68863;49.528;11.010;2023-08-01T04:10:38;7.43;;;1.77;;
79412;SDS011;68863;49.528;11.010;2023-08-01T04:11:38;5.25;;;1.60;;
79412;SDS011;68863;49.528;11.010;2023-08-01T04:12:39;6.33;;;1.70;;
79412;SDS011;68863;49.528;11.010;2023-08-01T04:13:39;6.20;;;1.90;;
79412;SDS011;68863;49.528;11.010;2023-08-01T04:14:39;5.85;;;1.95;;
79412;SDS011;68863;49.528;11.010;2023-08-01T04:15:40;6.50;;;1.73;;
79412;SDS011;68863;49.528;11.010;2023-08-01T04:16:40;5.63;;;2.03;;
79412;SDS011;68863;49.528;11.010;2023-08-01T04:17:40;4.65;;;1.70;;
79412;SDS011;68863;49.528;11.010;2023-08-01T04:18:41;6.07;;;1.92;;
79412;SDS011;68863;49.528;11.010;2023-08-01T04:19:41;5.23;;;1.53;;
79412;SDS011;68863;49.528;11.010;2023-08-01T04:20:41;4.40;;;1.63;;
79412;SDS011;68863;49.528;11.010;2023-08-01T04:21:42;6.10;;;2.05;;
79412;SDS011;68863;49.528;11.010;2023-08-01T04:22:42;5.90;;;1.77;;
79412;SDS011;68863;49.528;11.010;2023-08-01T04:23:42;5.35;;;1.58;;
79412;SDS011;68863;49.528;11.010;2023-08-01T04:24:43;6.70;;;1.77;;
79412;SDS011;68863;49.528;11.010;2023-08-01T04:25:43;5.82;;;2.00;;
79412;SDS011;68863;49.528;11.010;2023-08-01T04:26:43;6.55;;;2.05;;
79412;SDS011;68863;49.528;11.010;2023-08-01T04:27:43;6.65;;;1.90;;
79412;SDS011;68863;49.528;11.010;2023-08-01T04:28:45;5.00;;;1.57;;
79412;SDS011;68863;49.528;11.010;2023-08-01T04:29:46;5.85;;;1.52;;
79412;SDS011;68863;49.528;11.010;2023-08-01T04:30:50;5.32;;;1.60;;
79412;SDS011;68863;49.528;11.010;2023-08-01T04:31:51;5.28;;;1.73;;
79412;SDS011;68863;49.528;11.010;2023-08-01T04:32:51;6.22;;;1.73;;
79412;SDS011;68863;49.528;11.010;2023-08-01T04:33:52;6.00;;;1.90;;
79412;SDS011;68863;49.528;11.010;2023-08-01T04:34:52;5.40;;;1.80;;
79412;SDS011;68863;49.528;11.010;2023-08-01T04:35:52;5.10;;;1.42;;
79412;SDS011;68863;49.528;11.010;2023-08-01T04:36:58;6.18;;;1.80;;
79412;SDS011;68863;49.528;11.010;2023-08-01T04:37:59;5.13;;;1.58;;
79412;SDS011;68863;49.528;11.010;2023-08-01T04:38:59;5.65;;;1.75;;
79412;SDS011;68863;49.528;11.010;2023-08-01T04:39:59;6.43;;;1.70;;
79412;SDS011;68863;49.528;11.010;2023-08-01T04:41:00;4.80;;;1.60;;
79412;SDS011;68863;49.528;11.010;2023-08-01T04:42:01;5.93;;;2.05;;
79412;SDS011;68863;49.528;11.010;2023-08-01T04:43:02;5.97;;;1.67;;
79412;SDS011;68863;49.528;11.010;2023-08-01T04:44:02;5.57;;;1.70;;
79412;SDS011;68863;49.528;11.010;2023-08-01T04:46:24;6.05;;;1.90;;
79412;SDS011;68863;49.528;11.010;2023-08-01T04:47:25;5.60;;;1.58;;
79412;SDS011;68863;49.528;11.010;2023-08-01T04:48:25;4.20;;;1.48;;
79412;SDS011;68863;49.528;11.010;2023-08-01T04:49:25;4.53;;;1.65;;
79412;SDS011;68863;49.528;11.010;2023-08-01T04:50:26;5.82;;;1.63;;
79412;SDS011;68863;49.528;11.010;2023-08-01T04:51:26;5.50;;;1.55;;
79412;SDS011;68863;49.528;11.010;2023-08-01T04:52:26;6.18;;;1.88;;
79412;SDS011;68863;49.528;11.010;2023-08-01T04:53:27;9.02;;;1.77;;
79412;SDS011;68863;49.528;11.010;2023-08-01T04:54:27;5.60;;;2.03;;
79412;SDS011;68863;49.528;11.010;2023-08-01T04:55:27;5.33;;;1.67;;
79412;SDS011;68863;49.528;11.010;2023-08-01T05:07:44;5.03;;;1.50;;
79412;SDS011;68863;49.528;11.010;2023-08-01T05:08:45;5.32;;;1.85;;
79412;SDS011;68863;49.528;11.010;2023-08-01T05:09:45;6.65;;;1.98;;
79412;SDS011;68863;49.528;11.010;2023-08-01T05:10:45;6.38;;;2.00;;
79412;SDS011;68863;49.528;11.010;2023-08-01T05:11:45;6.07;;;1.98;;
79412;SDS011;68863;49.528;11.010;2023-08-01T05:12:46;6.68;;;1.95;;
79412;SDS011;68863;49.528;11.010;2023-08-01T05:13:46;7.50;;;1.90;;
79412;SDS011;68863;49.528;11.010;2023-08-01T05:14:47;5.88;;;1.83;;
79412;SDS011;68863;49.528;11.010;2023-08-01T05:15:47;5.85;;;1.98;;
79412;SDS011;68863;49.528;11.010;2023-08-01T05:16:47;5.57;;;1.70;;
79412;SDS011;68863;49.528;11.010;2023-08-01T05:17:47;7.65;;;1.95;;
79412;SDS011;68863;49.528;11.010;2023-08-01T05:25:01;5.30;;;1.70;;
79412;SDS011;68863;49.528;11.010;2023-08-01T06:21:51;6.28;;;2.05;;
79412;SDS011;68863;49.528;11.010;2023-08-01T06:22:52;7.43;;;2.05;;
79412;SDS011;68863;49.528;11.010;2023-08-01T06:23:52;7.80;;;2.50;;
79412;SDS011;68863;49.528;11.010;2023-08-01T06:24:52;6.72;;;2.45;;
79412;SDS011;68863;49.528;11.010;2023-08-01T06:25:53;6.30;;;2.53;;
79412;SDS011;68863;49.528;11.010;2023-08-01T06:26:53;6.05;;;1.92;;
79412;SDS011;68863;49.528;11.010;2023-08-01T06:28:05;5.57;;;1.93;;
79412;SDS011;68863;49.528;11.010;2023-08-01T06:29:06;6.03;;;2.05;;
79412;SDS011;68863;49.528;11.010;2023-08-01T06:30:06;6.03;;;2.28;;
79412;SDS011;68863;49.528;11.010;2023-08-01T06:31:07;7.10;;;2.13;;
79412;SDS011;68863;49.528;11.010;2023-08-01T06:32:25;5.30;;;2.03;;
79412;SDS011;68863;49.528;11.010;2023-08-01T06:33:29;6.30;;;1.65;;
79412;SDS011;68863;49.528;11.010;2023-08-01T06:34:29;6.35;;;1.95;;
79412;SDS011;68863;49.528;11.010;2023-08-01T06:35:32;6.07;;;2.05;;
79412;SDS011;68863;49.528;11.010;2023-08-01T06:36:33;5.20;;;1.92;;
79412;SDS011;68863;49.528;11.010;2023-08-01T06:37:33;6.43;;;1.98;;
79412;SDS011;68863;49.528;11.010;2023-08-01T06:38:33;5.30;;;2.10;;
79412;SDS011;68863;49.528;11.010;2023-08-01T06:39:33;6.25;;;1.70;;
79412;SDS011;68863;49.528;11.010;2023-08-01T06:40:34;6.00;;;1.73;;
79412;SDS011;68863;49.528;11.010;2023-08-01T06:41:34;6.88;;;2.13;;
79412;SDS011;68863;49.528;11.010;2023-08-01T06:42:34;6.03;;;2.07;;
79412;SDS011;68863;49.528;11.010;2023-08-01T06:43:35;7.20;;;1.83;;
79412;SDS011;68863;49.528;11.010;2023-08-01T06:44:38;6.07;;;2.33;;
79412;SDS011;68863;49.528;11.010;2023-08-01T06:45:40;6.03;;;2.33;;
79412;SDS011;68863;49.528;11.010;2023-08-01T06:46:40;6.18;;;2.00;;
79412;SDS011;68863;49.528;11.010;2023-08-01T06:47:40;6.50;;;2.03;;
79412;SDS011;68863;49.528;11.010;2023-08-01T06:48:40;8.13;;;1.90;;
79412;SDS011;68863;49.528;11.010;2023-08-01T06:49:41;6.68;;;1.92;;
79412;SDS011;68863;49.528;11.010;2023-08-01T06:50:41;5.60;;;1.65;;
79412;SDS011;68863;49.528;11.010;2023-08-01T06:51:41;7.72;;;2.00;;
79412;SDS011;68863;49.528;11.010;2023-08-01T06:52:42;6.25;;;2.03;;
79412;SDS011;68863;49.528;11.010;2023-08-01T06:53:43;6.28;;;1.90;;
79412;SDS011;68863;49.528;11.010;2023-08-01T06:54:43;6.38;;;1.90;;
79412;SDS011;68863;49.528;11.010;2023-08-01T06:55:43;7.57;;;2.35;;
79412;SDS011;68863;49.528;11.010;2023-08-01T06:56:44;6.40;;;2.00;;
79412;SDS011;68863;49.528;11.010;2023-08-01T06:57:47;7.22;;;2.50;;
79412;SDS011;68863;49.528;11.010;2023-08-01T06:58:47;7.55;;;2.55;;
79412;SDS011;68863;49.528;11.010;2023-08-01T06:59:48;6.07;;;2.55;;
79412;SDS011;68863;49.528;11.010;2023-08-01T07:00:48;5.80;;;2.13;;
79412;SDS011;68863;49.528;11.010;2023-08-01T07:01:48;7.05;;;2.17;;
79412;SDS011;68863;49.528;11.010;2023-08-01T07:02:49;7.15;;;2.25;;
79412;SDS011;68863;49.528;11.010;2023-08-01T07:03:50;6.47;;;2.13;;
79412;SDS011;68863;49.528;11.010;2023-08-01T07:04:52;7.07;;;2.10;;
79412;SDS011;68863;49.528;11.010;2023-08-01T07:05:52;7.73;;;2.30;;
79412;SDS011;68863;49.528;11.010;2023-08-01T07:06:52;6.22;;;2.22;;
79412;SDS011;68863;49.528;11.010;2023-08-01T07:07:52;5.90;;;2.13;;
79412;SDS011;68863;49.528;11.010;2023-08-01T07:08:53;5.82;;;2.15;;
79412;SDS011;68863;49.528;11.010;2023-08-01T07:09:53;6.57;;;2.08;;
79412;SDS011;68863;49.528;11.010;2023-08-01T07:10:53;7.25;;;1.92;;
79412;SDS011;68863;49.528;11.010;2023-08-01T07:11:53;5.55;;;2.10;;
79412;SDS011;68863;49.528;11.010;2023-08-01T07:12:54;7.10;;;2.23;;
79412;SDS011;68863;49.528;11.010;2023-08-01T07:13:54;4.85;;;1.90;;
79412;SDS011;68863;49.528;11.010;2023-08-01T07:14:54;8.55;;;1.88;;